Terminal Aerodrome Forecast
Issued by NWS

Current Version | Previous Version | Text Only | Print | Product List | Glossary On
Versions: 1 2 3 4 5 6 7 8 9 10 11 12 13 14 15 16
000
FTUS43 KMQT 020755 AAA
TAFIWD
TAF AMD
KIWD 020755Z 0208/0306 22006KT P6SM BKN120
     FM021000 24005KT P6SM VCSH BKN070
     FM021300 30007KT P6SM -SHRA SCT040 BKN060
     FM022000 30008KT P6SM VCSH BKN070
     FM030200 29006KT P6SM SCT070
      AMD LTD TO CLD VIS AND WIND=

USA.gov is the U.S. government's official web portal to all federal, state and local government web resources and services.